sensor_id;sensor_type;location;lat;lon;timestamp;P1;durP1;ratioP1;P2;durP2;ratioP2
59512;SDS011;45330;51.634;5.562;2024-01-07T00:02:22;28.50;;;15.30;;
59512;SDS011;45330;51.634;5.562;2024-01-07T00:04:47;26.90;;;14.30;;
59512;SDS011;45330;51.634;5.562;2024-01-07T00:07:13;25.80;;;14.55;;
59512;SDS011;45330;51.634;5.562;2024-01-07T00:09:38;27.48;;;14.25;;
59512;SDS011;45330;51.634;5.562;2024-01-07T00:12:03;25.10;;;14.40;;
59512;SDS011;45330;51.634;5.562;2024-01-07T00:14:29;26.00;;;14.48;;
59512;SDS011;45330;51.634;5.562;2024-01-07T00:16:54;26.65;;;13.77;;
59512;SDS011;45330;51.634;5.562;2024-01-07T00:19:20;25.90;;;14.18;;
59512;SDS011;45330;51.634;5.562;2024-01-07T00:21:45;25.00;;;13.52;;
59512;SDS011;45330;51.634;5.562;2024-01-07T00:24:10;26.75;;;14.80;;
59512;SDS011;45330;51.634;5.562;2024-01-07T00:26:36;25.70;;;14.05;;
59512;SDS011;45330;51.634;5.562;2024-01-07T00:29:01;25.98;;;13.60;;
59512;SDS011;45330;51.634;5.562;2024-01-07T00:31:27;26.67;;;13.40;;
59512;SDS011;45330;51.634;5.562;2024-01-07T00:33:52;26.90;;;14.05;;
59512;SDS011;45330;51.634;5.562;2024-01-07T00:36:17;25.27;;;13.30;;
59512;SDS011;45330;51.634;5.562;2024-01-07T00:38:43;27.83;;;13.68;;
59512;SDS011;45330;51.634;5.562;2024-01-07T00:41:08;27.27;;;13.98;;
59512;SDS011;45330;51.634;5.562;2024-01-07T00:43:33;27.05;;;14.93;;
59512;SDS011;45330;51.634;5.562;2024-01-07T00:45:59;26.42;;;14.35;;
59512;SDS011;45330;51.634;5.562;2024-01-07T00:48:24;27.38;;;14.30;;
59512;SDS011;45330;51.634;5.562;2024-01-07T00:50:49;28.42;;;16.83;;
59512;SDS011;45330;51.634;5.562;2024-01-07T00:53:15;27.13;;;14.25;;
59512;SDS011;45330;51.634;5.562;2024-01-07T00:55:40;29.15;;;15.38;;
59512;SDS011;45330;51.634;5.562;2024-01-07T00:58:05;29.55;;;16.30;;
59512;SDS011;45330;51.634;5.562;2024-01-07T01:00:31;29.52;;;15.88;;
59512;SDS011;45330;51.634;5.562;2024-01-07T01:02:56;30.30;;;16.83;;
59512;SDS011;45330;51.634;5.562;2024-01-07T01:05:21;29.83;;;16.13;;
59512;SDS011;45330;51.634;5.562;2024-01-07T01:07:47;30.70;;;18.33;;
59512;SDS011;45330;51.634;5.562;2024-01-07T01:10:12;31.65;;;17.67;;
59512;SDS011;45330;51.634;5.562;2024-01-07T01:12:39;31.05;;;17.05;;
59512;SDS011;45330;51.634;5.562;2024-01-07T01:15:05;33.58;;;17.23;;
59512;SDS011;45330;51.634;5.562;2024-01-07T01:17:30;31.10;;;18.17;;
59512;SDS011;45330;51.634;5.562;2024-01-07T01:19:56;33.38;;;17.58;;
59512;SDS011;45330;51.634;5.562;2024-01-07T01:22:21;31.73;;;17.15;;
59512;SDS011;45330;51.634;5.562;2024-01-07T01:24:46;32.88;;;19.42;;
59512;SDS011;45330;51.634;5.562;2024-01-07T01:27:13;33.55;;;18.13;;
59512;SDS011;45330;51.634;5.562;2024-01-07T01:29:40;35.30;;;19.85;;
59512;SDS011;45330;51.634;5.562;2024-01-07T01:32:06;34.85;;;20.90;;
59512;SDS011;45330;51.634;5.562;2024-01-07T01:34:31;35.25;;;18.50;;
59512;SDS011;45330;51.634;5.562;2024-01-07T01:36:57;34.53;;;19.30;;
59512;SDS011;45330;51.634;5.562;2024-01-07T01:39:22;35.03;;;19.13;;
59512;SDS011;45330;51.634;5.562;2024-01-07T01:41:48;34.10;;;19.25;;
59512;SDS011;45330;51.634;5.562;2024-01-07T01:44:13;33.60;;;18.35;;
59512;SDS011;45330;51.634;5.562;2024-01-07T01:46:38;36.30;;;19.77;;
59512;SDS011;45330;51.634;5.562;2024-01-07T01:49:05;33.85;;;19.17;;
59512;SDS011;45330;51.634;5.562;2024-01-07T01:51:32;34.78;;;18.00;;
59512;SDS011;45330;51.634;5.562;2024-01-07T01:53:58;35.05;;;18.75;;
59512;SDS011;45330;51.634;5.562;2024-01-07T01:56:25;35.35;;;18.08;;
59512;SDS011;45330;51.634;5.562;2024-01-07T01:58:52;35.38;;;19.60;;
59512;SDS011;45330;51.634;5.562;2024-01-07T02:01:18;38.05;;;21.27;;
59512;SDS011;45330;51.634;5.562;2024-01-07T02:03:43;35.08;;;19.13;;
59512;SDS011;45330;51.634;5.562;2024-01-07T02:06:09;38.72;;;19.88;;
59512;SDS011;45330;51.634;5.562;2024-01-07T02:08:37;37.15;;;20.23;;
59512;SDS011;45330;51.634;5.562;2024-01-07T02:11:19;36.08;;;18.83;;
59512;SDS011;45330;51.634;5.562;2024-01-07T02:13:46;38.60;;;22.15;;
59512;SDS011;45330;51.634;5.562;2024-01-07T02:16:12;36.65;;;20.13;;
59512;SDS011;45330;51.634;5.562;2024-01-07T02:18:39;36.47;;;19.48;;
59512;SDS011;45330;51.634;5.562;2024-01-07T02:21:06;38.42;;;21.67;;
59512;SDS011;45330;51.634;5.562;2024-01-07T02:23:32;39.58;;;21.73;;
59512;SDS011;45330;51.634;5.562;2024-01-07T02:25:58;39.10;;;20.38;;
59512;SDS011;45330;51.634;5.562;2024-01-07T02:28:23;40.45;;;23.65;;
59512;SDS011;45330;51.634;5.562;2024-01-07T02:30:48;39.85;;;21.15;;
59512;SDS011;45330;51.634;5.562;2024-01-07T02:33:14;48.05;;;29.70;;
59512;SDS011;45330;51.634;5.562;2024-01-07T02:35:39;43.67;;;25.38;;
59512;SDS011;45330;51.634;5.562;2024-01-07T02:38:05;44.75;;;26.77;;
59512;SDS011;45330;51.634;5.562;2024-01-07T02:40:30;44.17;;;24.55;;
59512;SDS011;45330;51.634;5.562;2024-01-07T02:42:55;48.30;;;24.30;;
59512;SDS011;45330;51.634;5.562;2024-01-07T02:45:21;47.25;;;25.90;;
59512;SDS011;45330;51.634;5.562;2024-01-07T02:47:47;43.42;;;23.45;;
59512;SDS011;45330;51.634;5.562;2024-01-07T02:50:12;46.35;;;23.60;;
59512;SDS011;45330;51.634;5.562;2024-01-07T02:52:38;46.00;;;24.17;;
59512;SDS011;45330;51.634;5.562;2024-01-07T02:55:03;45.47;;;22.92;;
59512;SDS011;45330;51.634;5.562;2024-01-07T02:57:29;44.92;;;24.25;;
59512;SDS011;45330;51.634;5.562;2024-01-07T02:59:54;42.15;;;21.42;;
59512;SDS011;45330;51.634;5.562;2024-01-07T03:02:19;44.70;;;23.95;;
59512;SDS011;45330;51.634;5.562;2024-01-07T03:04:45;44.72;;;24.52;;
59512;SDS011;45330;51.634;5.562;2024-01-07T03:07:10;42.67;;;23.85;;
59512;SDS011;45330;51.634;5.562;2024-01-07T03:09:36;43.70;;;22.38;;
59512;SDS011;45330;51.634;5.562;2024-01-07T03:12:01;40.03;;;22.05;;
59512;SDS011;45330;51.634;5.562;2024-01-07T03:14:26;40.65;;;22.92;;
59512;SDS011;45330;51.634;5.562;2024-01-07T03:16:52;36.95;;;21.00;;
59512;SDS011;45330;51.634;5.562;2024-01-07T03:19:17;39.95;;;27.00;;
59512;SDS011;45330;51.634;5.562;2024-01-07T03:21:43;37.78;;;21.88;;
59512;SDS011;45330;51.634;5.562;2024-01-07T03:24:09;36.92;;;21.13;;
59512;SDS011;45330;51.634;5.562;2024-01-07T03:26:35;36.65;;;20.13;;
59512;SDS011;45330;51.634;5.562;2024-01-07T03:29:00;36.80;;;22.27;;
59512;SDS011;45330;51.634;5.562;2024-01-07T03:31:27;36.90;;;20.67;;
59512;SDS011;45330;51.634;5.562;2024-01-07T03:33:52;34.10;;;19.60;;
59512;SDS011;45330;51.634;5.562;2024-01-07T03:36:18;34.97;;;21.33;;
59512;SDS011;45330;51.634;5.562;2024-01-07T03:38:43;33.83;;;18.60;;
59512;SDS011;45330;51.634;5.562;2024-01-07T03:41:08;36.10;;;20.23;;
59512;SDS011;45330;51.634;5.562;2024-01-07T03:43:34;38.10;;;20.83;;
59512;SDS011;45330;51.634;5.562;2024-01-07T03:45:59;36.33;;;20.25;;
59512;SDS011;45330;51.634;5.562;2024-01-07T03:48:25;33.85;;;17.65;;
59512;SDS011;45330;51.634;5.562;2024-01-07T03:50:51;36.35;;;19.25;;
59512;SDS011;45330;51.634;5.562;2024-01-07T03:53:16;34.20;;;18.85;;
59512;SDS011;45330;51.634;5.562;2024-01-07T03:55:42;36.17;;;21.10;;
59512;SDS011;45330;51.634;5.562;2024-01-07T03:58:08;35.38;;;18.58;;
59512;SDS011;45330;51.634;5.562;2024-01-07T04:00:33;36.13;;;21.30;;
59512;SDS011;45330;51.634;5.562;2024-01-07T04:03:00;37.42;;;19.70;;
59512;SDS011;45330;51.634;5.562;2024-01-07T04:05:26;30.40;;;16.48;;
59512;SDS011;45330;51.634;5.562;2024-01-07T04:07:51;31.55;;;17.08;;
59512;SDS011;45330;51.634;5.562;2024-01-07T04:10:17;30.02;;;16.33;;
59512;SDS011;45330;51.634;5.562;2024-01-07T04:12:43;34.15;;;18.85;;
59512;SDS011;45330;51.634;5.562;2024-01-07T04:15:09;33.78;;;17.75;;
59512;SDS011;45330;51.634;5.562;2024-01-07T04:17:35;33.20;;;18.65;;
59512;SDS011;45330;51.634;5.562;2024-01-07T04:20:00;31.45;;;17.98;;
59512;SDS011;45330;51.634;5.562;2024-01-07T04:22:25;30.80;;;17.25;;
59512;SDS011;45330;51.634;5.562;2024-01-07T04:24:51;31.98;;;18.50;;
59512;SDS011;45330;51.634;5.562;2024-01-07T04:27:16;33.17;;;18.27;;
59512;SDS011;45330;51.634;5.562;2024-01-07T04:29:41;30.40;;;16.55;;
59512;SDS011;45330;51.634;5.562;2024-01-07T04:32:07;30.15;;;16.75;;
59512;SDS011;45330;51.634;5.562;2024-01-07T04:34:32;27.92;;;15.05;;
59512;SDS011;45330;51.634;5.562;2024-01-07T04:36:58;29.55;;;15.90;;
59512;SDS011;45330;51.634;5.562;2024-01-07T04:39:23;29.67;;;16.10;;
59512;SDS011;45330;51.634;5.562;2024-01-07T04:41:48;28.25;;;16.15;;
59512;SDS011;45330;51.634;5.562;2024-01-07T04:44:14;26.95;;;15.18;;
59512;SDS011;45330;51.634;5.562;2024-01-07T04:46:39;24.35;;;13.07;;
59512;SDS011;45330;51.634;5.562;2024-01-07T04:49:05;24.13;;;13.30;;
59512;SDS011;45330;51.634;5.562;2024-01-07T04:51:34;24.73;;;13.07;;
59512;SDS011;45330;51.634;5.562;2024-01-07T04:53:59;26.13;;;14.55;;
59512;SDS011;45330;51.634;5.562;2024-01-07T04:56:25;24.50;;;12.20;;
59512;SDS011;45330;51.634;5.562;2024-01-07T04:58:50;24.42;;;13.95;;
59512;SDS011;45330;51.634;5.562;2024-01-07T05:01:15;25.33;;;13.80;;
59512;SDS011;45330;51.634;5.562;2024-01-07T05:03:41;27.23;;;14.20;;
59512;SDS011;45330;51.634;5.562;2024-01-07T05:06:09;27.13;;;13.70;;
59512;SDS011;45330;51.634;5.562;2024-01-07T05:08:35;23.13;;;12.38;;
59512;SDS011;45330;51.634;5.562;2024-01-07T05:11:02;24.33;;;13.02;;
59512;SDS011;45330;51.634;5.562;2024-01-07T05:13:28;23.88;;;13.70;;
59512;SDS011;45330;51.634;5.562;2024-01-07T05:15:54;25.38;;;14.55;;
59512;SDS011;45330;51.634;5.562;2024-01-07T05:18:20;25.48;;;12.98;;
59512;SDS011;45330;51.634;5.562;2024-01-07T05:20:47;23.52;;;13.00;;
59512;SDS011;45330;51.634;5.562;2024-01-07T05:23:12;24.20;;;13.70;;
59512;SDS011;45330;51.634;5.562;2024-01-07T05:25:38;24.70;;;13.90;;
59512;SDS011;45330;51.634;5.562;2024-01-07T05:28:03;24.08;;;12.80;;
59512;SDS011;45330;51.634;5.562;2024-01-07T05:30:28;24.73;;;14.02;;
59512;SDS011;45330;51.634;5.562;2024-01-07T05:32:55;25.00;;;14.20;;
59512;SDS011;45330;51.634;5.562;2024-01-07T05:35:20;25.30;;;12.40;;
59512;SDS011;45330;51.634;5.562;2024-01-07T05:37:45;23.10;;;12.60;;
59512;SDS011;45330;51.634;5.562;2024-01-07T05:40:11;23.35;;;12.82;;
59512;SDS011;45330;51.634;5.562;2024-01-07T05:42:36;23.80;;;11.80;;
59512;SDS011;45330;51.634;5.562;2024-01-07T05:45:02;22.77;;;13.57;;
59512;SDS011;45330;51.634;5.562;2024-01-07T05:47:27;22.52;;;11.30;;
59512;SDS011;45330;51.634;5.562;2024-01-07T05:49:53;22.73;;;12.70;;
59512;SDS011;45330;51.634;5.562;2024-01-07T05:52:19;22.05;;;11.30;;
59512;SDS011;45330;51.634;5.562;2024-01-07T05:54:44;21.75;;;10.77;;
59512;SDS011;45330;51.634;5.562;2024-01-07T05:57:10;22.73;;;11.50;;
59512;SDS011;45330;51.634;5.562;2024-01-07T05:59:37;21.50;;;9.50;;
59512;SDS011;45330;51.634;5.562;2024-01-07T06:02:02;23.75;;;12.40;;
59512;SDS011;45330;51.634;5.562;2024-01-07T06:04:27;23.45;;;12.20;;
59512;SDS011;45330;51.634;5.562;2024-01-07T06:06:53;23.20;;;11.60;;
59512;SDS011;45330;51.634;5.562;2024-01-07T06:09:18;22.02;;;11.70;;
59512;SDS011;45330;51.634;5.562;2024-01-07T06:11:44;25.73;;;13.75;;
59512;SDS011;45330;51.634;5.562;2024-01-07T06:14:09;24.63;;;14.95;;
59512;SDS011;45330;51.634;5.562;2024-01-07T06:16:34;23.17;;;13.35;;
59512;SDS011;45330;51.634;5.562;2024-01-07T06:19:00;23.00;;;12.02;;
59512;SDS011;45330;51.634;5.562;2024-01-07T06:21:25;23.50;;;13.07;;
59512;SDS011;45330;51.634;5.562;2024-01-07T06:23:51;22.80;;;12.02;;
59512;SDS011;45330;51.634;5.562;2024-01-07T06:26:17;24.65;;;13.70;;
59512;SDS011;45330;51.634;5.562;2024-01-07T06:28:42;23.63;;;13.98;;
59512;SDS011;45330;51.634;5.562;2024-01-07T06:31:07;24.38;;;13.05;;
59512;SDS011;45330;51.634;5.562;2024-01-07T06:33:33;23.25;;;12.65;;
59512;SDS011;45330;51.634;5.562;2024-01-07T06:35:59;22.90;;;12.40;;
59512;SDS011;45330;51.634;5.562;2024-01-07T06:38:25;24.73;;;13.88;;
59512;SDS011;45330;51.634;5.562;2024-01-07T06:40:50;25.92;;;14.45;;
59512;SDS011;45330;51.634;5.562;2024-01-07T06:43:16;24.67;;;13.57;;
59512;SDS011;45330;51.634;5.562;2024-01-07T06:45:42;28.25;;;16.48;;
59512;SDS011;45330;51.634;5.562;2024-01-07T06:48:08;26.73;;;16.48;;
59512;SDS011;45330;51.634;5.562;2024-01-07T06:50:34;26.65;;;15.68;;
59512;SDS011;45330;51.634;5.562;2024-01-07T06:52:59;27.90;;;17.23;;
59512;SDS011;45330;51.634;5.562;2024-01-07T06:55:25;28.08;;;17.48;;
59512;SDS011;45330;51.634;5.562;2024-01-07T06:57:50;27.15;;;14.48;;
59512;SDS011;45330;51.634;5.562;2024-01-07T07:00:16;23.95;;;12.77;;
59512;SDS011;45330;51.634;5.562;2024-01-07T07:02:42;22.23;;;11.13;;
59512;SDS011;45330;51.634;5.562;2024-01-07T07:05:08;22.88;;;12.27;;
59512;SDS011;45330;51.634;5.562;2024-01-07T07:07:33;22.33;;;12.68;;
59512;SDS011;45330;51.634;5.562;2024-01-07T07:09:59;23.75;;;13.32;;
59512;SDS011;45330;51.634;5.562;2024-01-07T07:12:24;23.30;;;12.40;;
59512;SDS011;45330;51.634;5.562;2024-01-07T07:14:50;23.33;;;12.55;;
59512;SDS011;45330;51.634;5.562;2024-01-07T07:17:15;21.73;;;12.23;;
59512;SDS011;45330;51.634;5.562;2024-01-07T07:19:40;22.88;;;12.65;;
59512;SDS011;45330;51.634;5.562;2024-01-07T07:22:06;22.15;;;10.85;;
59512;SDS011;45330;51.634;5.562;2024-01-07T07:24:31;23.25;;;11.75;;
59512;SDS011;45330;51.634;5.562;2024-01-07T07:26:56;23.08;;;11.13;;
59512;SDS011;45330;51.634;5.562;2024-01-07T07:29:22;21.27;;;11.80;;
59512;SDS011;45330;51.634;5.562;2024-01-07T07:31:47;23.40;;;12.18;;
59512;SDS011;45330;51.634;5.562;2024-01-07T07:34:13;23.35;;;11.68;;
59512;SDS011;45330;51.634;5.562;2024-01-07T07:36:39;22.75;;;12.40;;
59512;SDS011;45330;51.634;5.562;2024-01-07T07:39:05;21.92;;;11.82;;
59512;SDS011;45330;51.634;5.562;2024-01-07T07:41:31;22.10;;;10.65;;
59512;SDS011;45330;51.634;5.562;2024-01-07T07:43:56;23.50;;;11.93;;
59512;SDS011;45330;51.634;5.562;2024-01-07T07:46:22;22.95;;;12.32;;
59512;SDS011;45330;51.634;5.562;2024-01-07T07:48:47;23.30;;;12.55;;
59512;SDS011;45330;51.634;5.562;2024-01-07T07:51:13;23.05;;;11.80;;
59512;SDS011;45330;51.634;5.562;2024-01-07T07:53:39;23.33;;;12.90;;
59512;SDS011;45330;51.634;5.562;2024-01-07T07:56:05;22.98;;;11.15;;
59512;SDS011;45330;51.634;5.562;2024-01-07T07:58:31;22.27;;;11.27;;
59512;SDS011;45330;51.634;5.562;2024-01-07T08:00:56;22.02;;;10.73;;
59512;SDS011;45330;51.634;5.562;2024-01-07T08:03:22;22.40;;;10.73;;
59512;SDS011;45330;51.634;5.562;2024-01-07T08:05:48;23.52;;;12.30;;
59512;SDS011;45330;51.634;5.562;2024-01-07T08:08:14;22.95;;;12.13;;
59512;SDS011;45330;51.634;5.562;2024-01-07T08:10:40;22.00;;;10.93;;
59512;SDS011;45330;51.634;5.562;2024-01-07T08:13:05;21.80;;;11.07;;
59512;SDS011;45330;51.634;5.562;2024-01-07T08:15:32;21.42;;;11.90;;
59512;SDS011;45330;51.634;5.562;2024-01-07T08:17:57;21.88;;;11.60;;
59512;SDS011;45330;51.634;5.562;2024-01-07T08:20:22;22.83;;;12.57;;
59512;SDS011;45330;51.634;5.562;2024-01-07T08:22:48;23.13;;;11.65;;
59512;SDS011;45330;51.634;5.562;2024-01-07T08:25:13;23.73;;;11.90;;
59512;SDS011;45330;51.634;5.562;2024-01-07T08:27:40;21.33;;;12.00;;
59512;SDS011;45330;51.634;5.562;2024-01-07T08:30:06;21.23;;;10.32;;
59512;SDS011;45330;51.634;5.562;2024-01-07T08:32:32;22.60;;;11.68;;
59512;SDS011;45330;51.634;5.562;2024-01-07T08:34:57;21.02;;;10.95;;
59512;SDS011;45330;51.634;5.562;2024-01-07T08:37:22;21.02;;;11.95;;
59512;SDS011;45330;51.634;5.562;2024-01-07T08:39:48;20.25;;;10.23;;
59512;SDS011;45330;51.634;5.562;2024-01-07T08:42:13;20.50;;;10.05;;
59512;SDS011;45330;51.634;5.562;2024-01-07T08:44:39;22.05;;;10.25;;
59512;SDS011;45330;51.634;5.562;2024-01-07T08:47:04;21.02;;;10.50;;
59512;SDS011;45330;51.634;5.562;2024-01-07T08:49:30;21.27;;;11.55;;
59512;SDS011;45330;51.634;5.562;2024-01-07T08:51:58;21.00;;;10.13;;
59512;SDS011;45330;51.634;5.562;2024-01-07T08:54:23;20.50;;;10.55;;
59512;SDS011;45330;51.634;5.562;2024-01-07T08:56:49;16.98;;;7.55;;
59512;SDS011;45330;51.634;5.562;2024-01-07T08:59:14;19.92;;;10.15;;
59512;SDS011;45330;51.634;5.562;2024-01-07T09:01:40;19.02;;;9.52;;
59512;SDS011;45330;51.634;5.562;2024-01-07T09:04:05;20.35;;;9.85;;
59512;SDS011;45330;51.634;5.562;2024-01-07T09:06:31;20.55;;;10.00;;
59512;SDS011;45330;51.634;5.562;2024-01-07T09:08:57;21.80;;;11.27;;
59512;SDS011;45330;51.634;5.562;2024-01-07T09:11:22;20.38;;;10.73;;
59512;SDS011;45330;51.634;5.562;2024-01-07T09:13:48;20.55;;;11.07;;
59512;SDS011;45330;51.634;5.562;2024-01-07T09:16:15;19.98;;;9.75;;
59512;SDS011;45330;51.634;5.562;2024-01-07T09:18:41;20.63;;;10.70;;
59512;SDS011;45330;51.634;5.562;2024-01-07T09:21:06;20.48;;;11.43;;
59512;SDS011;45330;51.634;5.562;2024-01-07T09:23:32;18.77;;;9.82;;
59512;SDS011;45330;51.634;5.562;2024-01-07T09:25:59;19.10;;;9.75;;
59512;SDS011;45330;51.634;5.562;2024-01-07T09:28:24;18.65;;;8.63;;
59512;SDS011;45330;51.634;5.562;2024-01-07T09:30:50;18.75;;;8.90;;
59512;SDS011;45330;51.634;5.562;2024-01-07T09:33:15;18.85;;;8.20;;
59512;SDS011;45330;51.634;5.562;2024-01-07T09:35:41;19.40;;;10.25;;
59512;SDS011;45330;51.634;5.562;2024-01-07T09:38:07;19.65;;;10.23;;
59512;SDS011;45330;51.634;5.562;2024-01-07T09:40:32;18.67;;;9.50;;
59512;SDS011;45330;51.634;5.562;2024-01-07T09:42:57;18.42;;;8.95;;
59512;SDS011;45330;51.634;5.562;2024-01-07T09:45:24;18.92;;;9.57;;
59512;SDS011;45330;51.634;5.562;2024-01-07T09:47:50;19.17;;;9.52;;
59512;SDS011;45330;51.634;5.562;2024-01-07T09:50:16;18.50;;;9.38;;
59512;SDS011;45330;51.634;5.562;2024-01-07T09:52:45;18.25;;;8.60;;
59512;SDS011;45330;51.634;5.562;2024-01-07T09:58:10;19.17;;;9.10;;
59512;SDS011;45330;51.634;5.562;2024-01-07T10:00:36;18.42;;;9.60;;
59512;SDS011;45330;51.634;5.562;2024-01-07T10:03:03;18.70;;;8.00;;
59512;SDS011;45330;51.634;5.562;2024-01-07T10:05:28;19.60;;;10.02;;
59512;SDS011;45330;51.634;5.562;2024-01-07T10:07:54;19.92;;;10.45;;
59512;SDS011;45330;51.634;5.562;2024-01-07T10:10:22;19.83;;;9.65;;
59512;SDS011;45330;51.634;5.562;2024-01-07T10:12:47;19.58;;;9.32;;
59512;SDS011;45330;51.634;5.562;2024-01-07T10:15:13;19.17;;;9.95;;
59512;SDS011;45330;51.634;5.562;2024-01-07T10:17:42;21.05;;;11.07;;
59512;SDS011;45330;51.634;5.562;2024-01-07T10:20:08;19.73;;;9.73;;
59512;SDS011;45330;51.634;5.562;2024-01-07T10:22:37;18.77;;;10.02;;
59512;SDS011;45330;51.634;5.562;2024-01-07T10:25:05;18.70;;;9.40;;
59512;SDS011;45330;51.634;5.562;2024-01-07T10:27:37;20.65;;;10.57;;
59512;SDS011;45330;51.634;5.562;2024-01-07T10:30:03;19.30;;;9.25;;
59512;SDS011;45330;51.634;5.562;2024-01-07T10:32:29;19.73;;;10.25;;
59512;SDS011;45330;51.634;5.562;2024-01-07T10:34:56;21.85;;;10.02;;
59512;SDS011;45330;51.634;5.562;2024-01-07T10:37:26;19.88;;;9.65;;
59512;SDS011;45330;51.634;5.562;2024-01-07T10:39:52;17.85;;;7.85;;
59512;SDS011;45330;51.634;5.562;2024-01-07T10:42:20;19.88;;;9.48;;
59512;SDS011;45330;51.634;5.562;2024-01-07T10:44:45;19.17;;;8.55;;
59512;SDS011;45330;51.634;5.562;2024-01-07T10:47:11;20.13;;;10.23;;
59512;SDS011;45330;51.634;5.562;2024-01-07T10:49:39;18.83;;;9.70;;
59512;SDS011;45330;51.634;5.562;2024-01-07T10:52:06;19.77;;;9.73;;
59512;SDS011;45330;51.634;5.562;2024-01-07T10:54:33;20.75;;;10.25;;
59512;SDS011;45330;51.634;5.562;2024-01-07T11:00:02;19.98;;;9.20;;
59512;SDS011;45330;51.634;5.562;2024-01-07T11:02:33;19.17;;;8.95;;
59512;SDS011;45330;51.634;5.562;2024-01-07T11:05:20;19.55;;;9.68;;
59512;SDS011;45330;51.634;5.562;2024-01-07T11:07:57;20.42;;;9.68;;
59512;SDS011;45330;51.634;5.562;2024-01-07T11:10:39;19.73;;;10.05;;
59512;SDS011;45330;51.634;5.562;2024-01-07T11:13:10;18.17;;;8.10;;
59512;SDS011;45330;51.634;5.562;2024-01-07T11:15:56;22.00;;;10.30;;
59512;SDS011;45330;51.634;5.562;2024-01-07T11:18:22;19.73;;;9.07;;
59512;SDS011;45330;51.634;5.562;2024-01-07T11:20:48;18.63;;;9.30;;
59512;SDS011;45330;51.634;5.562;2024-01-07T11:26:02;20.20;;;9.52;;
59512;SDS011;45330;51.634;5.562;2024-01-07T11:28:47;20.50;;;10.07;;
59512;SDS011;45330;51.634;5.562;2024-01-07T11:31:21;19.88;;;8.60;;
59512;SDS011;45330;51.634;5.562;2024-01-07T11:34:07;17.98;;;8.18;;
59512;SDS011;45330;51.634;5.562;2024-01-07T11:36:34;20.20;;;7.88;;
59512;SDS011;45330;51.634;5.562;2024-01-07T11:39:00;19.08;;;8.38;;
59512;SDS011;45330;51.634;5.562;2024-01-07T11:41:27;18.45;;;8.07;;
59512;SDS011;45330;51.634;5.562;2024-01-07T11:43:54;18.40;;;8.02;;
59512;SDS011;45330;51.634;5.562;2024-01-07T11:46:23;18.58;;;7.63;;
59512;SDS011;45330;51.634;5.562;2024-01-07T11:48:50;17.77;;;8.05;;
59512;SDS011;45330;51.634;5.562;2024-01-07T11:51:18;17.38;;;7.43;;
59512;SDS011;45330;51.634;5.562;2024-01-07T11:53:47;15.27;;;6.82;;
59512;SDS011;45330;51.634;5.562;2024-01-07T11:56:13;14.60;;;6.55;;
59512;SDS011;45330;51.634;5.562;2024-01-07T11:58:39;14.30;;;6.07;;
59512;SDS011;45330;51.634;5.562;2024-01-07T12:01:05;16.88;;;7.28;;
59512;SDS011;45330;51.634;5.562;2024-01-07T12:03:31;12.88;;;5.65;;
59512;SDS011;45330;51.634;5.562;2024-01-07T12:05:56;14.90;;;6.25;;
59512;SDS011;45330;51.634;5.562;2024-01-07T12:08:22;16.60;;;6.70;;
59512;SDS011;45330;51.634;5.562;2024-01-07T12:10:47;14.82;;;6.00;;
59512;SDS011;45330;51.634;5.562;2024-01-07T12:13:12;15.13;;;6.25;;
59512;SDS011;45330;51.634;5.562;2024-01-07T12:15:38;14.05;;;6.25;;
59512;SDS011;45330;51.634;5.562;2024-01-07T12:18:04;15.13;;;7.45;;
59512;SDS011;45330;51.634;5.562;2024-01-07T12:20:30;14.27;;;5.80;;
59512;SDS011;45330;51.634;5.562;2024-01-07T12:22:56;14.93;;;6.88;;
59512;SDS011;45330;51.634;5.562;2024-01-07T12:25:22;14.23;;;6.50;;
59512;SDS011;45330;51.634;5.562;2024-01-07T12:27:49;16.17;;;6.78;;
59512;SDS011;45330;51.634;5.562;2024-01-07T12:30:18;14.15;;;6.35;;
59512;SDS011;45330;51.634;5.562;2024-01-07T12:32:45;12.82;;;5.63;;
59512;SDS011;45330;51.634;5.562;2024-01-07T12:35:10;13.73;;;6.53;;
59512;SDS011;45330;51.634;5.562;2024-01-07T12:37:36;15.50;;;6.68;;
59512;SDS011;45330;51.634;5.562;2024-01-07T12:40:02;12.85;;;5.68;;
59512;SDS011;45330;51.634;5.562;2024-01-07T12:42:28;12.18;;;5.28;;
59512;SDS011;45330;51.634;5.562;2024-01-07T12:44:53;13.35;;;5.63;;
59512;SDS011;45330;51.634;5.562;2024-01-07T12:47:19;13.52;;;5.80;;
59512;SDS011;45330;51.634;5.562;2024-01-07T12:49:44;13.35;;;5.63;;
59512;SDS011;45330;51.634;5.562;2024-01-07T12:52:09;11.18;;;5.10;;
59512;SDS011;45330;51.634;5.562;2024-01-07T12:54:35;12.75;;;5.70;;
59512;SDS011;45330;51.634;5.562;2024-01-07T12:57:02;14.05;;;5.55;;
59512;SDS011;45330;51.634;5.562;2024-01-07T12:59:27;10.45;;;4.80;;
59512;SDS011;45330;51.634;5.562;2024-01-07T13:01:52;12.50;;;4.55;;
59512;SDS011;45330;51.634;5.562;2024-01-07T13:04:18;9.60;;;4.60;;
59512;SDS011;45330;51.634;5.562;2024-01-07T13:06:44;10.18;;;4.60;;
59512;SDS011;45330;51.634;5.562;2024-01-07T13:09:10;9.82;;;4.30;;
59512;SDS011;45330;51.634;5.562;2024-01-07T13:11:36;7.13;;;3.80;;
59512;SDS011;45330;51.634;5.562;2024-01-07T13:14:01;10.38;;;4.10;;
59512;SDS011;45330;51.634;5.562;2024-01-07T13:16:27;11.77;;;3.72;;
59512;SDS011;45330;51.634;5.562;2024-01-07T13:18:53;7.47;;;3.67;;
59512;SDS011;45330;51.634;5.562;2024-01-07T13:21:20;9.10;;;3.58;;
59512;SDS011;45330;51.634;5.562;2024-01-07T13:23:46;8.35;;;3.70;;
59512;SDS011;45330;51.634;5.562;2024-01-07T13:26:12;7.60;;;3.80;;
59512;SDS011;45330;51.634;5.562;2024-01-07T13:28:41;7.63;;;3.58;;
59512;SDS011;45330;51.634;5.562;2024-01-07T13:31:07;8.32;;;3.50;;
59512;SDS011;45330;51.634;5.562;2024-01-07T13:33:34;8.70;;;3.38;;
59512;SDS011;45330;51.634;5.562;2024-01-07T13:36:00;8.45;;;3.47;;
59512;SDS011;45330;51.634;5.562;2024-01-07T13:38:25;4.78;;;3.28;;
59512;SDS011;45330;51.634;5.562;2024-01-07T13:40:51;7.38;;;3.20;;
59512;SDS011;45330;51.634;5.562;2024-01-07T13:43:16;5.90;;;3.20;;
59512;SDS011;45330;51.634;5.562;2024-01-07T13:45:42;8.00;;;3.13;;
59512;SDS011;45330;51.634;5.562;2024-01-07T13:48:07;5.55;;;2.80;;
59512;SDS011;45330;51.634;5.562;2024-01-07T13:50:33;5.80;;;3.00;;
59512;SDS011;45330;51.634;5.562;2024-01-07T13:52:58;6.97;;;3.40;;
59512;SDS011;45330;51.634;5.562;2024-01-07T13:55:24;10.35;;;3.35;;
59512;SDS011;45330;51.634;5.562;2024-01-07T13:57:50;9.23;;;3.38;;
59512;SDS011;45330;51.634;5.562;2024-01-07T14:00:15;4.78;;;3.22;;
59512;SDS011;45330;51.634;5.562;2024-01-07T14:02:43;6.38;;;3.05;;
59512;SDS011;45330;51.634;5.562;2024-01-07T14:05:10;8.50;;;3.17;;
59512;SDS011;45330;51.634;5.562;2024-01-07T14:07:36;7.10;;;3.40;;
59512;SDS011;45330;51.634;5.562;2024-01-07T14:10:02;5.85;;;3.10;;
59512;SDS011;45330;51.634;5.562;2024-01-07T14:12:28;6.97;;;3.33;;
59512;SDS011;45330;51.634;5.562;2024-01-07T14:14:54;6.68;;;3.35;;
59512;SDS011;45330;51.634;5.562;2024-01-07T14:17:19;6.88;;;3.30;;
59512;SDS011;45330;51.634;5.562;2024-01-07T14:19:44;8.45;;;3.30;;
59512;SDS011;45330;51.634;5.562;2024-01-07T14:22:11;7.80;;;3.20;;
59512;SDS011;45330;51.634;5.562;2024-01-07T14:24:37;5.55;;;3.10;;
59512;SDS011;45330;51.634;5.562;2024-01-07T14:27:03;6.40;;;2.90;;
59512;SDS011;45330;51.634;5.562;2024-01-07T14:29:28;6.55;;;3.20;;